CDT,Max TemperatureF,Mean TemperatureF,Min TemperatureF,Max Dew PointF,MeanDew PointF,Min DewpointF,Max Humidity, Mean Humidity, Min Humidity, Max Sea Level PressureIn, Mean Sea Level PressureIn, Min Sea Level PressureIn, Max VisibilityMiles, Mean VisibilityMiles, Min VisibilityMiles, Max Wind SpeedMPH, Mean Wind SpeedMPH, Max Gust SpeedMPH,PrecipitationIn, CloudCover, Events, WindDirDegrees
2013-7-1,86,75,64,61,56,50,78,52,30,29.99,29.96,29.91,10,10,7,13,5,20,0.00,1,,3
2013-7-2,87,74,62,59,54,48,82,50,25,30.05,30.01,29.98,10,10,10,10,3,18,0.00,1,,7
2013-7-3,89,74,60,61,54,48,88,52,25,30.06,30.01,29.93,10,10,2,8,1,16,0.00,2,,76
2013-7-4,89,76,62,63,61,57,88,58,35,30.02,29.98,29.92,10,10,10,9,2,,0.00,2,Thunderstorm,115
2013-7-5,93,78,62,64,60,54,94,57,26,30.02,29.95,29.88,10,10,7,10,2,18,0.00,0,,116
2013-7-6,95,80,66,72,61,55,83,55,26,29.98,29.93,29.86,10,10,10,12,2,17,0.00,1,,130
2013-7-7,95,82,69,72,67,63,88,61,36,30.01,29.97,29.91,10,10,10,16,4,21,0.00,2,,136
2013-7-8,91,82,73,72,69,66,89,66,43,30.11,30.06,30.00,10,10,10,13,5,18,0.00,3,,172
2013-7-9,96,84,71,72,67,61,94,59,32,30.14,30.08,30.00,10,10,10,9,5,20,0.00,1,,187
2013-7-10,98,86,73,72,67,59,88,55,28,30.08,30.01,29.91,10,10,10,10,5,,0.00,0,,186
2013-7-11,96,84,73,73,70,66,100,72,37,29.99,29.96,29.91,10,10,2,16,3,36,0.72,2,Rain-Thunderstorm,206
2013-7-12,96,82,69,73,70,64,100,70,36,29.98,29.93,29.88,10,10,10,9,1,16,0.00,0,,66
2013-7-13,95,84,71,70,64,59,78,54,36,30.01,29.94,29.88,10,10,10,10,4,,0.00,0,,78
2013-7-14,77,72,68,70,65,61,100,78,65,30.00,29.94,29.88,10,9,2,8,1,,1.03,3,Rain,4
2013-7-15,75,72,68,72,68,66,100,93,83,30.09,30.03,29.96,10,7,4,9,2,,0.59,5,Rain-Thunderstorm,79
2013-7-16,86,78,69,73,70,68,100,85,58,30.19,30.12,30.08,10,10,5,18,2,25,0.35,3,Rain-Thunderstorm,83
2013-7-17,87,79,71,73,71,68,100,81,52,30.23,30.17,30.13,10,10,4,13,2,20,0.00,3,Rain,102
2013-7-18,91,80,69,75,70,68,100,77,46,30.17,30.11,30.01,10,10,3,7,1,,0.16,1,Rain-Thunderstorm,59
2013-7-19,80,74,69,73,70,68,100,87,74,30.09,30.02,29.95,10,10,5,10,3,20,0.21,3,Rain-Thunderstorm,162
2013-7-20,89,79,69,73,70,68,100,81,52,29.99,29.95,29.86,10,9,1,16,2,28,0.00,2,Rain-Thunderstorm,168
2013-7-21,91,81,71,73,71,70,100,77,49,29.97,29.93,29.88,10,10,7,17,4,24,0.00,3,,181
2013-7-22,91,82,73,73,72,70,100,71,49,30.00,29.95,29.89,10,10,7,12,6,16,0.00,3,,189
2013-7-23,93,84,75,73,70,63,94,66,36,30.01,29.94,29.84,10,10,5,10,5,18,0.00,2,,197
2013-7-24,89,81,73,73,71,68,94,73,55,30.01,29.93,29.88,10,10,7,14,4,16,0.00,1,,207
2013-7-25,91,81,71,73,71,70,94,74,52,30.05,30.01,29.97,10,10,10,8,1,,0.00,2,,99
2013-7-26,89,82,75,73,71,68,89,73,49,30.04,29.96,29.86,10,10,10,15,4,21,0.00,2,Thunderstorm,190
2013-7-27,82,75,68,72,69,66,100,80,58,30.01,29.96,29.91,10,10,3,12,5,16,0.00,6,Rain,18
2013-7-28,89,76,62,72,68,63,100,75,49,29.99,29.95,29.89,10,8,3,9,2,17,0.00,3,,124
2013-7-29,95,85,75,73,69,64,89,65,36,30.04,29.99,29.94,10,10,7,15,7,22,0.00,3,,170
2013-7-30,96,86,75,72,68,63,89,60,32,30.11,30.03,29.96,10,10,10,16,8,23,0.00,2,,183
2013-7-31,96,84,73,72,68,64,89,61,34,30.09,30.01,29.92,10,10,7,10,6,20,0.00,1,,201